ADDS METAR Data INFO
IDs: Format: Raw Decoded Include TAF

Data at: 1439 UTC 22 Feb 2018

KOMH 221415Z AUTO 01005KT 10SM OVC018 11/07 A3046 RMK AO2
KOMH 221355Z AUTO 36009KT 10SM OVC018 11/07 A3046 RMK AO2
KOMH 221335Z AUTO 02005KT 10SM OVC018 12/08 A3046 RMK AO2
KOMH 221310Z AUTO 36008KT 10SM OVC016 12/08 A3046 RMK AO2
KOMH 221255Z AUTO 01008KT 10SM OVC016 12/08 A3045 RMK AO2
KOMH 221235Z AUTO 01005KT 10SM OVC016 13/10 A3044 RMK AO2
KOMH 221215Z AUTO 01008KT 10SM OVC016 13/10 A3043 RMK AO2
KOMH 221155Z AUTO 36007KT 10SM OVC018 13/11 A3043 RMK AO2
KOMH 221135Z AUTO 03006KT 10SM OVC018 13/11 A3042 RMK AO2
KOMH 221115Z AUTO 03003KT 10SM OVC020 15/11 A3042 RMK AO2
KOMH 221055Z AUTO 03005KT 10SM OVC020 15/12 A3041 RMK AO2
KOMH 221035Z AUTO 00000KT 10SM OVC020 16/12 A3040 RMK AO2
KOMH 221015Z AUTO 00000KT 10SM OVC020 16/12 A3040 RMK AO2
KOMH 220955Z AUTO 00000KT 10SM OVC020 16/13 A3040 RMK AO2
KOMH 220935Z AUTO 00000KT 10SM OVC022 16/13 A3039 RMK AO2
KOMH 220915Z AUTO 00000KT 10SM BKN024 OVC033 16/14 A3039 RMK AO2
KOMH 220855Z AUTO 00000KT 10SM SCT024 OVC031 16/15 A3039 RMK AO2
KOMH 220835Z AUTO 00000KT 10SM OVC031 17/15 A3039 RMK AO2
KOMH 220815Z AUTO 00000KT 10SM OVC031 16/15 A3039 RMK AO2
KOMH 220755Z AUTO 00000KT 10SM BKN031 OVC038 15/15 A3039 RMK AO2
KOMH 220735Z AUTO 00000KT 10SM BKN037 OVC044 15/13 A3039 RMK AO2
KOMH 220715Z AUTO 00000KT 10SM SCT037 OVC046 13/13 A3039 RMK AO2
KOMH 220655Z AUTO 00000KT 10SM BKN046 13/13 A3039 RMK AO2
KOMH 220635Z AUTO 00000KT 10SM SCT037 SCT046 SCT060 13/12 A3039 RMK AO2
KOMH 220615Z AUTO 00000KT 10SM SCT060 13/12 A3038 RMK AO2
KOMH 220555Z AUTO 00000KT 10SM CLR 13/13 A3038 RMK AO2
KOMH 220535Z AUTO 00000KT 10SM CLR 13/12 A3038 RMK AO2
KOMH 220515Z AUTO 00000KT 10SM SCT070 14/13 A3037 RMK AO2
KOMH 220455Z AUTO 00000KT 10SM CLR 14/13 A3038 RMK AO2
KOMH 220435Z AUTO 00000KT 10SM CLR 15/13 A3037 RMK AO2
KOMH 220415Z AUTO 00000KT 10SM CLR 15/13 A3037 RMK AO2
KOMH 220355Z AUTO 00000KT 10SM CLR 15/13 A3036 RMK AO2
KOMH 220035Z AUTO 00000KT 10SM SCT055 21/16 A3034 RMK AO2
KOMH 220015Z AUTO 00000KT 10SM SCT065 SCT075 22/16 A3034 RMK AO2
KOMH 212355Z AUTO 00000KT 10SM SCT044 22/16 A3034 RMK AO2
KOMH 212335Z AUTO 20006KT 10SM SCT044 23/16 A3033 RMK AO2
KOMH 212315Z AUTO 00000KT 10SM CLR 22/16 A3032 RMK AO2
KOMH 212255Z AUTO 22010G16KT 10SM CLR 23/16 A3031 RMK AO2
KOMH 212235Z AUTO 22013G20KT 10SM CLR 24/16 A3030 RMK AO2
KOMH 212215Z AUTO 20011G16KT 10SM CLR 25/16 A3029 RMK AO2
KOMH 212155Z AUTO 20010G22KT 10SM CLR 25/16 A3028 RMK AO2
KOMH 212135Z AUTO 22014G21KT 10SM CLR 25/16 A3028 RMK AO2
KOMH 212115Z AUTO 20015G23KT 10SM CLR 25/16 A3028 RMK AO2
KOMH 212055Z AUTO 20014G21KT 10SM CLR 26/16 A3028 RMK AO2
KOMH 212035Z AUTO 21016G22KT 10SM CLR 26/16 A3028 RMK AO2
KOMH 212015Z AUTO 21014G25KT 180V250 10SM CLR 26/16 A3028 RMK AO2
KOMH 211955Z AUTO 22015G22KT 10SM CLR 26/16 A3029 RMK AO2
KOMH 211935Z AUTO 22018G23KT 10SM CLR 26/16 A3030 RMK AO2
KOMH 211915Z AUTO 23017G28KT 10SM CLR 26/16 A3030 RMK AO2
KOMH 211855Z AUTO 22015G29KT 10SM CLR 26/16 A3030 RMK AO2
KOMH 211835Z AUTO 23016G24KT 10SM SCT120 26/16 A3031 RMK AO2
KOMH 211815Z AUTO 22012G20KT 10SM SCT120 25/16 A3031 RMK AO2
KOMH 211755Z AUTO 20018G26KT 10SM CLR 23/16 A3031 RMK AO2
KOMH 211735Z AUTO 22013G27KT 10SM SCT027 SCT095 23/16 A3034 RMK AO2
KOMH 211715Z AUTO 20016G24KT 10SM SCT027 SCT095 23/16 A3034 RMK AO2
KOMH 211655Z AUTO 23016G24KT 10SM SCT025 23/16 A3036 RMK AO2
KOMH 211635Z AUTO 23020G30KT 10SM SCT023 22/16 A3036 RMK AO2
KOMH 211615Z AUTO 22018G24KT 10SM BKN021 22/16 A3037 RMK AO2
KOMH 211555Z AUTO 21012G24KT 10SM OVC019 21/16 A3037 RMK AO2
KOMH 211535Z AUTO 21013G22KT 10SM BKN017 OVC095 20/16 A3038 RMK AO2
KOMH 211515Z AUTO 21014G19KT 10SM SCT013 BKN017 OVC095 18/16 A3039 RMK AO2
KOMH 211455Z AUTO 21016G23KT 10SM OVC011 18/16 A3040 RMK AO2
KOMH 211435Z AUTO 21011G17KT 10SM OVC011 17/16 A3040 RMK AO2
KOMH 211415Z AUTO 22007KT 10SM OVC009 17/15 A3039 RMK AO2
KOMH 211355Z AUTO 21011G16KT 10SM OVC009 17/15 A3039 RMK AO2
KOMH 211335Z AUTO 21009KT 10SM BKN007 OVC012 17/15 A3039 RMK AO2
KOMH 211315Z AUTO 21007KT 10SM OVC007 15/15 A3039 RMK AO2
KOMH 211255Z AUTO 21007KT 10SM OVC007 15/14 A3039 RMK AO2
KOMH 211235Z AUTO 20007KT 10SM OVC007 15/14 A3038 RMK AO2
KOMH 210735Z AUTO 00000KT 10SM CLR 14/13 A3035 RMK AO2
KOMH 210715Z AUTO 00000KT 10SM CLR 14/13 A3035 RMK AO2
KOMH 210655Z AUTO 00000KT 10SM CLR 15/13 A3036 RMK AO2
KOMH 210635Z AUTO 00000KT 10SM CLR 14/13 A3035 RMK AO2
KOMH 210615Z AUTO 00000KT 10SM CLR 15/13 A3036 RMK AO2
KOMH 210555Z AUTO 00000KT 10SM CLR 14/13 A3036 RMK AO2